Kezdőlap
METAR-TAF:

METAR-TAF

Repülőterek :

Edson, Alberta, Kanada

földrajzi szélesség: 53-35N, földrajzi hosszúság: 116-28W, magasság: 921 m

Jelenlegi meteorológiai megfigyelések

A jelentés 2 órával és 16 perccel ezelõtt készült, 12:00 UTC
Nyugat-északnyugati szél 4 kt
Hőmérséklet -1°C
Páratartalom 74%
Légköri nyomás 1016 hPa
Látótávolság: 14.5 km
Szakadozott felhőzet 8000 lábon
Borult 14000 lábon

METAR: CYET 181200Z AUTO 29004KT 9SM BKN080 OVC140 M01/M05 A2999 RMK SLP182

Idő: 08:16 (14:16 UTC)


TAF: hiányzik

Meteorológiai megfigyelések és előrejelzések több, mint 4000 repülőtéren (METAR és TAF jelentéseket).

A térképen piros és sárga pontok jelzik az elérhető meteorológiai állomásokat.

Mozgassa az egeret a pont fölött, hogy megjelenjen az állomás neve.

Azután kattintson az időjárási megfigyelések és előrejelzések megtekintéséhez.

A térkép megváltoztatása: kattintson a fekete keresztel jelölt zöld gombra ráközelítéshez, a vonallal jelölt zöld gombra távolításhoz, vagy a zöld nyilakra a szomszédos térképek eléréséhez.


METAR-TAF: